Time;durP1;ratioP1;P1;durP2;ratioP2;P2;SDS_P1;SDS_P2;PMS_P1;PMS_P2;Temp;Humidity;BMP_temperature;BMP_pressure;BME280_temperature;BME280_humidity;BME280_pressure;Samples;Min_cycle;Max_cycle;Signal;HPM_P1;HPM_P2
2022/07/26 00:04:11;;;;;;;2.57;1.13;;;;;;;22.87;47.85;96128.28;10287773;28;98649;-70
2022/07/26 00:09:15;;;;;;;2.95;1.40;;;;;;;22.85;47.62;96125.03;10284479;28;97018;-69
2022/07/26 00:14:18;;;;;;;2.80;1.60;;;;;;;23.02;47.51;96135.03;10291389;28;98751;-69
2022/07/26 00:19:21;;;;;;;3.58;1.20;;;;;;;22.98;47.95;96140.81;10286111;28;96797;-69
2022/07/26 00:24:25;;;;;;;2.55;1.50;;;;;;;22.93;48.43;96153.22;10291843;28;97629;-69
2022/07/26 00:29:34;;;;;;;2.35;0.90;;;;;;;22.85;48.42;96146.34;10312865;28;99240;-69
2022/07/26 00:34:36;;;;;;;2.90;1.30;;;;;;;22.91;47.94;96134.78;10291240;28;96862;-69
2022/07/26 00:39:42;;;;;;;1.70;1.00;;;;;;;23.15;47.70;96137.47;10284975;28;97788;-69
2022/07/26 00:44:46;;;;;;;2.30;1.00;;;;;;;23.25;47.25;96137.72;10284469;28;98353;-69
2022/07/26 00:49:49;;;;;;;2.45;1.33;;;;;;;23.28;47.43;96142.63;10286751;28;97777;-70
2022/07/26 00:54:55;;;;;;;1.57;0.90;;;;;;;23.33;47.01;96142.75;10279492;28;97004;-69
2022/07/26 00:59:59;;;;;;;3.78;1.15;;;;;;;23.30;47.65;96153.88;10279342;28;98396;-69
2022/07/26 01:05:02;;;;;;;2.10;1.05;;;;;;;23.09;47.85;96141.06;10284603;28;98925;-69
2022/07/26 01:10:11;;;;;;;4.53;1.30;;;;;;;22.96;48.59;96158.88;10287991;28;96711;-69
2022/07/26 01:15:15;;;;;;;2.80;1.10;;;;;;;22.90;48.69;96158.97;10282029;28;99077;-70
2022/07/26 01:20:18;;;;;;;2.13;1.10;;;;;;;22.86;49.40;96155.16;10279085;28;99265;-70
2022/07/26 01:25:31;;;;;;;2.05;0.93;;;;;;;22.57;50.86;96149.63;10264911;28;99382;-69
2022/07/26 01:30:34;;;;;;;1.20;1.00;;;;;;;22.50;51.07;96149.69;10278871;28;99033;-69
2022/07/26 01:35:36;;;;;;;1.05;0.90;;;;;;;22.45;51.12;96146.88;10270136;28;97736;-69
2022/07/26 01:40:41;;;;;;;2.17;1.00;;;;;;;22.48;51.00;96129.69;10286742;28;97741;-69
2022/07/26 01:45:44;;;;;;;2.00;0.90;;;;;;;22.57;50.83;96139.78;10284785;28;96909;-69
2022/07/26 01:50:47;;;;;;;1.02;0.80;;;;;;;22.63;50.43;96144.19;10284715;28;99108;-69
2022/07/26 01:55:51;;;;;;;3.20;1.10;;;;;;;22.68;50.49;96129.38;10291699;28;97250;-69
2022/07/26 02:00:54;;;;;;;;;;;;;;;22.56;50.19;96130.16;10287692;28;97117;-69
2022/07/26 02:05:57;;;;;;;0.52;0.40;;;;;;;22.37;50.33;96133.88;10287846;28;97798;-69
2022/07/26 02:11:01;;;;;;;2.63;0.50;;;;;;;22.36;50.32;96140.25;10283596;28;97236;-69
2022/07/26 02:16:08;;;;;;;0.52;0.40;;;;;;;22.33;50.47;96135.34;10290728;28;96809;-69
2022/07/26 02:21:11;;;;;;;1.40;0.50;;;;;;;22.39;50.38;96143.25;10286579;28;99138;-69
2022/07/26 02:26:16;;;;;;;1.08;0.52;;;;;;;22.40;50.90;96141.41;10281605;28;99006;-70
2022/07/26 02:31:18;;;;;;;;;;;;;;;22.44;50.17;96134.63;10277053;28;98263;-70
2022/07/26 02:36:22;;;;;;;0.88;0.55;;;;;;;22.50;50.27;96136.38;10293376;28;98437;-69
2022/07/26 02:41:26;;;;;;;1.80;0.60;;;;;;;22.54;50.09;96129.56;10284459;28;98724;-69
2022/07/26 02:46:29;;;;;;;;;;;;;;;22.40;50.13;96138.75;10297225;28;97718;-69
2022/07/26 02:51:32;;;;;;;0.93;0.52;;;;;;;22.28;50.85;96132.56;10299087;28;99187;-70
2022/07/26 02:56:36;;;;;;;0.50;0.50;;;;;;;22.04;51.65;96135.13;10282102;28;98127;-69
2022/07/26 03:01:39;;;;;;;;;;;;;;;21.91;51.50;96135.25;10302427;28;97953;-68
2022/07/26 03:06:42;;;;;;;1.52;0.73;;;;;;;21.74;51.85;96133.16;10295554;28;96940;-68
2022/07/26 03:11:46;;;;;;;2.53;0.98;;;;;;;21.66;50.97;96123.66;10286080;28;96845;-69
2022/07/26 03:16:49;;;;;;;0.70;0.65;;;;;;;21.71;51.27;96120.34;10307829;28;99024;-69
2022/07/26 03:21:52;;;;;;;1.40;0.65;;;;;;;21.68;51.11;96113.59;10291178;28;98466;-69
2022/07/26 03:26:56;;;;;;;1.77;0.82;;;;;;;21.68;51.01;96113.59;10289729;28;96940;-69
2022/07/26 03:31:59;;;;;;;1.80;0.98;;;;;;;21.67;50.22;96124.44;10286692;28;97108;-69
2022/07/26 03:37:02;;;;;;;2.70;1.30;;;;;;;21.55;49.90;96112.91;10286013;28;96885;-68
2022/07/26 03:42:07;;;;;;;2.88;1.13;;;;;;;21.55;49.98;96111.03;10291810;28;96792;-69
2022/07/26 03:47:10;;;;;;;1.95;1.20;;;;;;;21.66;49.51;96107.69;10280657;28;98373;-68
2022/07/26 03:52:13;;;;;;;3.90;1.20;;;;;;;21.60;49.17;96107.72;10286916;28;97143;-69
2022/07/26 03:57:17;;;;;;;2.88;1.20;;;;;;;21.68;48.80;96102.97;10280728;28;97190;-69
2022/07/26 04:02:20;;;;;;;1.70;1.13;;;;;;;21.64;48.64;96103.63;10272712;28;97988;-69
2022/07/26 04:07:23;;;;;;;1.52;1.08;;;;;;;21.64;48.78;96096.47;10281341;28;97449;-69
2022/07/26 04:12:30;;;;;;;1.00;0.90;;;;;;;21.69;49.00;96095.78;10267996;28;98287;-68
2022/07/26 04:17:36;;;;;;;2.33;1.35;;;;;;;21.75;49.14;96100.25;10290977;28;97863;-69
2022/07/26 04:22:40;;;;;;;1.52;1.20;;;;;;;21.68;49.13;96099.50;10287672;28;97344;-69
2022/07/26 04:27:44;;;;;;;1.83;1.13;;;;;;;21.61;49.10;96098.72;10270665;28;98417;-69
2022/07/26 04:32:47;;;;;;;1.60;1.10;;;;;;;21.66;48.86;96101.56;10281508;28;98733;-68
2022/07/26 04:37:50;;;;;;;3.20;1.10;;;;;;;21.76;48.25;96101.88;10277461;28;97705;-68
2022/07/26 04:42:54;;;;;;;2.80;1.17;;;;;;;21.82;48.59;96100.97;10288954;28;98047;-68
2022/07/26 04:47:58;;;;;;;2.28;1.20;;;;;;;21.86;48.37;96090.69;10287626;28;96920;-68
2022/07/26 04:53:01;;;;;;;2.25;1.10;;;;;;;21.96;48.52;96091.00;10287490;28;98308;-69
2022/07/26 04:58:06;;;;;;;1.60;1.00;;;;;;;22.00;48.55;96096.69;10291477;28;100246;-69
2022/07/26 05:03:08;;;;;;;;;;;;;;;21.95;48.49;96100.00;10277461;28;97396;-69
2022/07/26 05:08:14;;;;;;;2.63;1.30;;;;;;;21.84;48.81;96109.53;10293494;28;97665;-69
2022/07/26 05:13:19;;;;;;;2.60;1.20;;;;;;;21.77;49.17;96106.13;10308561;28;96811;-69
2022/07/26 05:18:31;;;;;;;1.95;1.00;;;;;;;21.67;49.27;96103.19;10290932;28;97025;-69
2022/07/26 05:23:51;;;;;;;2.25;1.23;;;;;;;21.62;50.39;96108.34;10281598;28;97365;-69
2022/07/26 05:28:55;;;;;;;2.38;1.00;;;;;;;21.60;50.38;96097.09;10286841;28;98877;-69
2022/07/26 05:33:58;;;;;;;2.55;1.25;;;;;;;21.60;50.25;96097.09;10283958;28;96906;-69
2022/07/26 05:39:00;;;;;;;2.28;1.02;;;;;;;21.71;50.24;96104.38;10276658;28;96799;-69
2022/07/26 05:44:05;;;;;;;2.28;1.00;;;;;;;21.82;50.51;96110.81;10295349;28;98766;-68
2022/07/26 05:49:08;;;;;;;1.58;1.10;;;;;;;21.86;50.72;96102.13;10283516;28;100862;-69
2022/07/26 05:54:11;;;;;;;3.30;1.33;;;;;;;21.84;50.12;96114.84;10298408;28;98006;-69
2022/07/26 05:59:15;;;;;;;1.85;1.10;;;;;;;21.85;49.93;96105.06;10291892;28;98175;-69
2022/07/26 06:04:18;;;;;;;;;;;;;;;21.72;49.99;96111.31;10293452;28;97079;-69
2022/07/26 06:09:22;;;;;;;1.80;1.20;;;;;;;21.53;50.57;96110.44;10290920;28;98049;-68
2022/07/26 06:14:27;;;;;;;3.22;1.35;;;;;;;21.54;51.06;96116.59;10299143;28;97865;-69
2022/07/26 06:19:30;;;;;;;;;;;;;;;21.52;50.28;96111.50;10297533;28;97084;-69
2022/07/26 06:24:32;;;;;;;4.60;1.40;;;;;;;21.51;51.16;96113.31;10284169;28;97676;-69
2022/07/26 06:29:37;;;;;;;3.10;1.20;;;;;;;21.60;51.36;96119.16;10289948;28;97095;-68
2022/07/26 06:34:39;;;;;;;;;;;;;;;21.72;50.71;96116.63;10291945;28;98806;-69
2022/07/26 06:39:42;;;;;;;3.35;1.30;;;;;;;21.80;50.56;96113.69;10300803;28;96893;-68
2022/07/26 06:44:46;;;;;;;2.33;1.00;;;;;;;21.90;50.75;96112.34;10300334;28;97265;-68
2022/07/26 06:49:49;;;;;;;3.13;1.02;;;;;;;21.91;50.37;96109.47;10312037;28;96924;-68
2022/07/26 06:54:52;;;;;;;1.10;0.90;;;;;;;22.04;50.03;96108.50;10313769;28;97661;-68
2022/07/26 06:59:56;;;;;;;1.52;1.08;;;;;;;22.12;49.55;96105.53;10301638;28;97011;-69
2022/07/26 07:04:59;;;;;;;;;;;;;;;22.29;49.08;96110.25;10303536;28;97142;-68
2022/07/26 07:10:03;;;;;;;1.52;0.95;;;;;;;22.39;49.65;96110.53;10285338;28;96836;-69
2022/07/26 07:15:10;;;;;;;1.67;1.30;;;;;;;22.65;49.07;96108.53;10296721;28;97914;-69
2022/07/26 07:20:13;;;;;;;2.08;1.42;;;;;;;22.75;48.44;96108.78;10305325;28;96940;-68
2022/07/26 07:25:16;;;;;;;1.67;1.10;;;;;;;22.78;48.73;96109.16;10313820;28;96802;-69
2022/07/26 07:30:26;;;;;;;2.67;1.35;;;;;;;22.72;48.21;96093.28;10312490;28;96811;-69
2022/07/26 07:35:29;;;;;;;2.53;1.48;;;;;;;22.76;48.09;96099.78;10299887;28;96886;-69
2022/07/26 07:40:33;;;;;;;1.48;1.17;;;;;;;22.89;47.71;96094.25;10302453;28;96827;-68
2022/07/26 07:45:38;;;;;;;1.75;1.10;;;;;;;23.13;48.00;96096.94;10309748;28;98874;-68
2022/07/26 07:50:40;;;;;;;2.90;1.10;;;;;;;23.39;47.15;96093.03;10309926;28;97681;-68
2022/07/26 07:55:43;;;;;;;3.35;1.33;;;;;;;23.55;47.40;96080.84;10306906;28;97288;-68
2022/07/26 08:00:50;;;;;;;1.33;1.17;;;;;;;23.61;48.05;96079.91;10313285;28;97053;-69
2022/07/26 08:05:53;;;;;;;2.38;1.10;;;;;;;23.75;47.99;96081.28;10312921;28;98575;-69
2022/07/26 08:10:55;;;;;;;3.00;1.13;;;;;;;23.68;48.35;96069.13;10303589;28;98697;-69
2022/07/26 08:16:00;;;;;;;1.30;1.00;;;;;;;23.65;49.30;96083.72;10298924;28;97272;-69
2022/07/26 08:21:03;;;;;;;1.73;1.23;;;;;;;23.83;49.39;96082.78;10297157;28;96862;-69
2022/07/26 08:26:06;;;;;;;2.15;1.10;;;;;;;24.00;48.78;96077.53;10295132;28;97146;-69
2022/07/26 08:31:11;;;;;;;3.57;1.00;;;;;;;24.20;48.36;96077.13;10295657;28;97367;-69
2022/07/26 08:36:15;;;;;;;1.98;1.25;;;;;;;24.44;47.32;96067.16;10286938;28;96939;-70
2022/07/26 08:41:18;;;;;;;2.00;1.15;;;;;;;24.91;46.36;96073.34;10295751;28;96923;-68
2022/07/26 08:46:24;;;;;;;1.47;1.10;;;;;;;25.37;45.58;96074.00;10295100;28;96845;-69
2022/07/26 08:51:31;;;;;;;0.85;0.75;;;;;;;25.55;45.32;96079.13;10295233;28;96777;-69
2022/07/26 08:56:35;;;;;;;1.98;1.08;;;;;;;25.86;44.39;96082.22;10295427;28;97608;-69
2022/07/26 09:01:52;;;;;;;2.17;1.30;;;;;;;26.12;44.07;96074.47;10291553;28;97291;-69
2022/07/26 09:06:58;;;;;;;3.38;1.20;;;;;;;26.15;43.70;96072.13;10294483;28;97086;-69
2022/07/26 09:12:14;;;;;;;1.65;0.90;;;;;;;26.29;43.32;96064.53;10294972;28;96919;-69
2022/07/26 09:17:20;;;;;;;1.42;1.10;;;;;;;26.48;43.43;96062.28;10290635;28;96871;-69
2022/07/26 09:22:23;;;;;;;2.55;0.95;;;;;;;26.61;43.25;96066.44;10295357;28;97104;-69
2022/07/26 09:27:35;;;;;;;3.37;1.20;;;;;;;26.34;43.54;96059.19;10294073;28;96930;-69
2022/07/26 09:32:39;;;;;;;1.90;1.17;;;;;;;26.53;42.79;96074.94;10293832;28;97341;-70
2022/07/26 09:37:45;;;;;;;2.78;1.25;;;;;;;26.64;42.53;96068.63;10294113;28;97704;-69
2022/07/26 09:42:56;;;;;;;1.10;0.77;;;;;;;26.72;42.66;96072.69;10294246;28;96788;-69
2022/07/26 09:48:00;;;;;;;1.20;1.00;;;;;;;27.02;41.92;96071.34;10293625;28;97923;-69
2022/07/26 09:53:07;;;;;;;3.25;1.35;;;;;;;27.24;41.29;96071.25;10294503;28;96977;-70
2022/07/26 09:58:12;;;;;;;4.72;1.42;;;;;;;27.08;41.26;96073.81;10291870;28;96805;-70
2022/07/26 10:03:17;;;;;;;2.10;1.23;;;;;;;27.05;41.48;96071.66;10287039;28;96849;-69
2022/07/26 10:08:20;;;;;;;4.38;1.27;;;;;;;27.12;41.29;96066.06;10292997;28;96778;-69
2022/07/26 10:13:23;;;;;;;2.50;1.48;;;;;;;27.41;41.25;96058.50;10298631;28;96729;-69
2022/07/26 10:18:44;;;;;;;2.15;1.35;;;;;;;27.52;40.98;96058.56;10299164;28;96698;-69
2022/07/26 10:23:48;;;;;;;2.25;1.25;;;;;;;27.47;41.34;96045.91;10297031;28;97193;-68
2022/07/26 10:28:51;;;;;;;1.52;1.08;;;;;;;27.44;40.87;96044.56;10293670;28;96763;-67
2022/07/26 10:33:56;;;;;;;3.05;1.30;;;;;;;27.50;40.56;96046.19;10299301;28;96897;-66
2022/07/26 10:39:11;;;;;;;1.70;1.00;;;;;;;27.42;39.56;96038.66;10299513;28;97299;-68
2022/07/26 10:44:26;;;;;;;2.55;1.20;;;;;;;27.44;39.02;96031.16;10299596;28;96857;-66
2022/07/26 10:49:32;;;;;;;1.92;1.42;;;;;;;26.86;39.35;96039.03;10303374;28;98036;-66
2022/07/26 10:55:04;;;;;;;3.08;1.23;;;;;;;26.70;39.80;96032.75;10320013;28;97134;-66
2022/07/26 11:00:10;;;;;;;2.40;1.60;;;;;;;26.65;39.46;96026.56;10324955;28;96847;-67
2022/07/26 11:05:16;;;;;;;1.92;1.30;;;;;;;26.75;40.11;96024.75;10312206;28;97200;-66
2022/07/26 11:10:27;;;;;;;2.08;1.42;;;;;;;27.01;39.59;96014.25;10314105;28;97176;-67
2022/07/26 11:15:32;;;;;;;1.60;1.33;;;;;;;27.24;39.43;96004.22;10297919;28;97120;-67
2022/07/26 11:20:36;;;;;;;;;;;;;;;27.61;39.09;96003.31;10299463;28;96985;-66
2022/07/26 11:25:39;;;;;;;2.40;1.40;;;;;;;27.32;39.15;96009.09;10297622;28;97237;-66
2022/07/26 11:30:56;;;;;;;2.17;1.33;;;;;;;27.61;38.56;95993.41;10297096;28;97265;-66
2022/07/26 11:36:00;;;;;;;1.55;1.33;;;;;;;27.91;37.78;95991.09;10297811;28;96922;-66
2022/07/26 11:41:03;;;;;;;1.60;1.20;;;;;;;28.08;36.85;95997.06;10297148;28;96830;-68
2022/07/26 11:46:06;;;;;;;4.13;1.33;;;;;;;28.17;36.64;95978.56;10297369;28;96899;-67
2022/07/26 11:51:13;;;;;;;1.30;1.20;;;;;;;28.39;35.92;95981.03;10296322;28;97734;-66
2022/07/26 11:56:17;;;;;;;1.77;1.30;;;;;;;28.70;35.43;95975.66;10297231;28;97005;-66
2022/07/26 12:01:22;;;;;;;2.10;1.40;;;;;;;29.06;35.16;95967.59;10295508;28;97121;-66
2022/07/26 12:06:27;;;;;;;1.75;1.27;;;;;;;29.41;34.67;95961.28;10292182;28;96853;-69
2022/07/26 12:11:38;;;;;;;2.03;1.50;;;;;;;29.45;34.63;95958.84;10296449;28;97708;-66
2022/07/26 12:16:44;;;;;;;2.53;1.40;;;;;;;29.73;34.44;95952.03;10295181;28;97937;-66
2022/07/26 12:21:50;;;;;;;1.92;1.23;;;;;;;28.82;34.67;95953.88;10297095;28;96715;-68
2022/07/26 12:27:05;;;;;;;1.80;1.30;;;;;;;28.41;35.04;95952.00;10296706;28;97180;-66
2022/07/26 12:32:11;;;;;;;2.58;1.52;;;;;;;28.21;36.77;95937.47;10295551;28;96982;-66
2022/07/26 12:37:17;;;;;;;2.28;1.25;;;;;;;28.10;37.35;95943.91;10282202;28;98251;-66
2022/07/26 12:42:24;;;;;;;3.30;1.48;;;;;;;28.32;36.99;95942.88;10277696;28;96876;-67
2022/07/26 12:47:37;;;;;;;1.70;1.20;;;;;;;28.70;36.63;95948.78;10298921;28;97026;-67
2022/07/26 12:52:42;;;;;;;1.45;1.00;;;;;;;29.10;35.71;95939.06;10297532;28;96749;-66
2022/07/26 12:57:45;;;;;;;2.47;1.42;;;;;;;29.18;35.28;95920.47;10294909;28;96827;-66
2022/07/26 13:02:50;;;;;;;3.03;1.30;;;;;;;29.51;34.55;95920.09;10287400;28;97642;-67
2022/07/26 13:07:54;;;;;;;2.17;1.55;;;;;;;29.41;34.09;95920.13;10283214;28;97924;-66
2022/07/26 13:12:57;;;;;;;2.78;1.23;;;;;;;28.91;34.05;95920.81;10282744;28;97220;-67
2022/07/26 13:18:00;;;;;;;2.00;1.45;;;;;;;28.82;34.39;95911.66;10290290;28;96926;-67
2022/07/26 13:23:04;;;;;;;2.40;1.33;;;;;;;28.64;34.26;95913.06;10295765;28;96817;-67
2022/07/26 13:28:08;;;;;;;3.33;1.25;;;;;;;28.54;34.65;95913.88;10294406;28;96815;-67
2022/07/26 13:33:11;;;;;;;2.40;1.40;;;;;;;28.46;34.08;95905.53;10287356;28;97179;-68
2022/07/26 13:38:17;;;;;;;1.35;1.02;;;;;;;28.64;34.58;95899.63;10294524;28;97250;-68
2022/07/26 13:43:20;;;;;;;2.30;1.10;;;;;;;28.83;33.72;95899.84;10294266;28;97409;-66
2022/07/26 13:48:23;;;;;;;1.45;1.10;;;;;;;28.99;33.53;95898.75;10298340;28;96782;-71
2022/07/26 13:53:29;;;;;;;2.55;1.45;;;;;;;28.99;34.77;95897.97;10288038;28;96851;-69
2022/07/26 13:58:32;;;;;;;1.85;1.27;;;;;;;28.75;35.02;95881.59;10300547;28;97204;-73
2022/07/26 14:03:35;;;;;;;3.25;1.50;;;;;;;28.82;34.54;95886.69;10286312;28;97732;-67
2022/07/26 14:08:39;;;;;;;2.00;1.13;;;;;;;28.94;34.42;95890.69;10293149;28;98707;-66
2022/07/26 14:13:42;;;;;;;2.90;1.42;;;;;;;29.07;34.83;95888.50;10299798;28;97434;-66
2022/07/26 14:18:45;;;;;;;1.65;1.33;;;;;;;29.89;33.75;95885.47;10299836;28;96843;-66
2022/07/26 14:23:50;;;;;;;1.30;1.20;;;;;;;30.98;32.80;95880.75;10300424;28;96940;-68
2022/07/26 14:28:53;;;;;;;2.35;1.33;;;;;;;30.58;31.97;95871.97;10299870;28;97702;-66
2022/07/26 14:33:56;;;;;;;1.80;1.20;;;;;;;29.85;32.16;95876.31;10293096;28;97071;-67
2022/07/26 14:39:00;;;;;;;2.92;1.10;;;;;;;29.08;32.68;95866.72;10299178;28;97129;-68
2022/07/26 14:44:03;;;;;;;6.65;1.38;;;;;;;28.76;32.72;95872.47;10299465;28;96904;-67
2022/07/26 14:49:06;;;;;;;3.60;1.48;;;;;;;29.06;33.37;95871.56;10299041;28;98416;-68
2022/07/26 14:54:12;;;;;;;1.80;1.25;;;;;;;31.25;30.97;95858.59;10299120;28;96837;-67
2022/07/26 14:59:16;;;;;;;2.63;1.08;;;;;;;32.81;28.65;95861.41;10298890;28;96796;-67
2022/07/26 15:04:19;;;;;;;1.80;1.10;;;;;;;31.63;29.51;95868.69;10293897;28;96802;-68
2022/07/26 15:09:23;;;;;;;2.25;1.05;;;;;;;30.53;30.01;95856.69;10297599;28;96878;-67
2022/07/26 15:14:26;;;;;;;1.40;0.93;;;;;;;31.15;29.35;95846.03;10289219;28;96824;-68
2022/07/26 15:19:29;;;;;;;;;;;;;;;33.53;28.00;95838.31;10298911;28;96893;-67
2022/07/26 15:24:33;;;;;;;1.40;1.08;;;;;;;35.27;26.25;95849.44;10298467;28;98493;-68
2022/07/26 15:29:41;;;;;;;2.80;1.10;;;;;;;34.93;26.93;95849.00;10297670;28;97212;-67
2022/07/26 15:34:44;;;;;;;2.42;1.35;;;;;;;32.75;29.29;95847.16;10296070;28;97958;-67
2022/07/26 15:39:49;;;;;;;3.88;1.70;;;;;;;32.49;29.42;95846.78;10304609;28;97949;-68
2022/07/26 15:44:53;;;;;;;1.83;1.00;;;;;;;34.68;26.77;95852.41;10289560;28;96755;-67
2022/07/26 15:49:56;;;;;;;2.88;1.33;;;;;;;34.27;27.07;95856.94;10287013;28;96949;-67
2022/07/26 15:55:00;;;;;;;2.80;1.35;;;;;;;33.04;27.82;95859.59;10299597;28;96960;-68
2022/07/26 16:00:05;;;;;;;2.10;1.17;;;;;;;31.41;29.25;95851.13;10301938;28;96852;-69
2022/07/26 16:05:13;;;;;;;3.10;1.27;;;;;;;30.19;30.57;95849.44;10296608;28;96954;-67
2022/07/26 16:10:18;;;;;;;1.85;1.05;;;;;;;29.52;30.97;95846.34;10296940;28;97517;-68
2022/07/26 16:15:21;;;;;;;1.30;1.10;;;;;;;29.50;30.89;95848.50;10288213;28;96844;-67
2022/07/26 16:20:23;;;;;;;1.60;1.08;;;;;;;29.71;30.50;95843.81;10297853;28;96926;-66
2022/07/26 16:25:28;;;;;;;1.77;1.00;;;;;;;31.31;28.29;95837.75;10304538;28;97950;-67
2022/07/26 16:30:31;;;;;;;2.03;0.90;;;;;;;33.69;25.94;95838.78;10306172;28;97066;-67
2022/07/26 16:35:34;;;;;;;1.50;0.90;;;;;;;34.94;24.22;95833.56;10291554;28;99751;-69
2022/07/26 16:40:39;;;;;;;1.33;0.70;;;;;;;35.67;23.63;95831.16;10300349;28;97145;-67
2022/07/26 16:45:42;;;;;;;1.60;0.98;;;;;;;35.28;23.42;95842.91;10285952;28;96950;-69
2022/07/26 16:50:44;;;;;;;2.70;0.95;;;;;;;35.00;23.93;95834.19;10267698;28;97680;-72
2022/07/26 16:55:50;;;;;;;2.67;1.17;;;;;;;35.67;24.29;95838.50;10296754;28;97122;-69
2022/07/26 17:00:53;;;;;;;1.55;1.02;;;;;;;36.93;23.51;95849.38;10284444;28;99076;-68
2022/07/26 17:05:56;;;;;;;2.38;1.10;;;;;;;37.34;21.86;95831.56;10287788;28;96846;-68
2022/07/26 17:11:06;;;;;;;3.67;1.30;;;;;;;35.31;23.22;95836.84;10266103;28;97570;-66
2022/07/26 17:16:08;;;;;;;2.03;1.52;;;;;;;33.05;24.83;95843.09;10262680;28;97095;-70
2022/07/26 17:21:11;;;;;;;2.65;1.30;;;;;;;33.23;24.61;95840.56;10274180;28;98097;-67
2022/07/26 17:26:16;;;;;;;3.25;0.88;;;;;;;33.65;24.16;95839.44;10272447;28;96796;-72
2022/07/26 17:31:19;;;;;;;2.58;1.35;;;;;;;33.68;23.92;95854.25;10263331;28;96906;-71
2022/07/26 17:36:24;;;;;;;1.65;0.80;;;;;;;33.33;24.38;95858.53;10279924;28;96819;-67
2022/07/26 17:41:28;;;;;;;1.52;1.20;;;;;;;33.44;23.94;95838.22;10286403;28;98072;-68
2022/07/26 17:46:35;;;;;;;1.00;0.80;;;;;;;32.86;24.54;95845.88;10267885;28;97203;-67
2022/07/26 17:51:38;;;;;;;3.22;2.03;;;;;;;32.96;24.52;95844.88;10264391;28;96923;-67
2022/07/26 17:56:43;;;;;;;2.75;1.75;;;;;;;32.58;24.75;95839.66;10281283;28;96900;-67
2022/07/26 18:01:46;;;;;;;1.85;0.70;;;;;;;31.68;25.62;95844.31;10277145;28;98178;-69
2022/07/26 18:06:55;;;;;;;2.38;1.05;;;;;;;30.63;26.77;95840.41;10272076;28;97704;-67
2022/07/26 18:12:00;;;;;;;2.88;1.00;;;;;;;29.17;28.28;95856.19;10288357;28;99153;-71
2022/07/26 18:17:03;;;;;;;2.20;0.93;;;;;;;28.04;29.63;95849.09;10302217;28;97073;-70
2022/07/26 18:22:06;;;;;;;2.65;1.00;;;;;;;27.14;30.85;95848.66;10297072;28;100352;-66
2022/07/26 18:27:10;;;;;;;2.13;1.00;;;;;;;26.55;31.77;95858.50;10286742;28;98505;-66
2022/07/26 18:32:14;;;;;;;4.57;1.33;;;;;;;25.92;32.81;95855.59;10292233;28;97034;-68
2022/07/26 18:37:17;;;;;;;3.70;1.10;;;;;;;25.41;33.72;95845.19;10310269;28;96774;-65
2022/07/26 18:42:21;;;;;;;3.05;1.30;;;;;;;25.09;34.05;95859.25;10279315;28;97240;-67
2022/07/26 18:47:24;;;;;;;2.78;0.98;;;;;;;24.83;34.55;95858.13;10293695;28;97770;-66
2022/07/26 18:52:27;;;;;;;1.60;0.97;;;;;;;24.64;35.01;95852.22;10303607;28;97101;-66
2022/07/26 18:57:36;;;;;;;4.78;0.95;;;;;;;24.52;34.78;95865.69;10299174;28;96758;-66
2022/07/26 19:02:39;;;;;;;1.65;0.90;;;;;;;24.29;35.47;95862.16;10300764;28;97338;-67
2022/07/26 19:07:42;;;;;;;3.50;1.75;;;;;;;24.12;35.82;95856.00;10285944;28;96896;-68
2022/07/26 19:12:47;;;;;;;2.20;0.90;;;;;;;23.96;36.12;95857.59;10308457;28;96898;-65
2022/07/26 19:17:50;;;;;;;2.45;1.00;;;;;;;23.73;36.04;95864.69;10303515;28;96964;-66
2022/07/26 19:22:53;;;;;;;1.63;0.80;;;;;;;23.60;36.57;95864.97;10299881;28;96907;-66
2022/07/26 19:27:57;;;;;;;2.13;1.00;;;;;;;23.53;36.43;95875.81;10296433;28;97174;-67
2022/07/26 19:33:01;;;;;;;2.17;0.85;;;;;;;23.37;36.48;95861.34;10288540;28;97364;-67
2022/07/26 19:38:04;;;;;;;2.63;0.70;;;;;;;23.17;36.94;95871.63;10285648;28;97377;-70
2022/07/26 19:43:08;;;;;;;2.22;1.08;;;;;;;23.06;37.51;95883.09;10302107;28;97021;-66
2022/07/26 19:48:11;;;;;;;3.95;1.08;;;;;;;22.87;37.90;95883.25;10294412;28;97380;-66
2022/07/26 19:53:14;;;;;;;6.15;0.95;;;;;;;22.71;38.21;95890.09;10289822;28;98131;-67
2022/07/26 19:58:18;;;;;;;1.58;0.65;;;;;;;22.58;38.12;95891.16;10298504;28;98891;-66
2022/07/26 20:03:21;;;;;;;2.72;1.10;;;;;;;22.52;38.34;95908.03;10293633;28;96873;-67
2022/07/26 20:08:24;;;;;;;2.38;0.70;;;;;;;22.47;38.53;95907.13;10296219;28;97340;-66
2022/07/26 20:13:29;;;;;;;4.60;1.10;;;;;;;22.39;38.60;95910.91;10298487;28;97111;-67
2022/07/26 20:18:31;;;;;;;;;;;;;;;22.33;38.06;95922.47;10296977;28;97123;-66
2022/07/26 20:23:34;;;;;;;2.47;0.80;;;;;;;22.29;38.68;95926.63;10300877;28;97672;-66
2022/07/26 20:28:39;;;;;;;2.30;1.08;;;;;;;22.24;38.83;95929.97;10298303;28;96871;-65
2022/07/26 20:33:41;;;;;;;;;;;;;;;22.18;38.45;95917.56;10313963;28;96943;-66
2022/07/26 20:38:44;;;;;;;3.13;0.80;;;;;;;22.06;38.98;95922.91;10298316;28;98371;-69
2022/07/26 20:43:55;;;;;;;1.77;0.93;;;;;;;22.01;39.43;95923.56;10300071;28;97921;-67
2022/07/26 20:48:58;;;;;;;2.10;0.80;;;;;;;21.98;39.52;95920.56;10294277;28;98746;-67
2022/07/26 20:54:02;;;;;;;2.00;0.82;;;;;;;21.98;39.47;95925.88;10294037;28;97121;-66
2022/07/26 20:59:06;;;;;;;1.88;0.80;;;;;;;21.93;39.79;95926.53;10292924;28;98833;-66
2022/07/26 21:04:09;;;;;;;;;;;;;;;21.82;39.40;95930.00;10293333;28;96988;-66
2022/07/26 21:09:13;;;;;;;2.25;1.00;;;;;;;21.82;39.60;95936.13;10291790;28;97722;-66
2022/07/26 21:14:18;;;;;;;2.58;0.98;;;;;;;21.72;40.00;95940.34;10284198;28;97356;-67
2022/07/26 21:19:21;;;;;;;2.30;1.38;;;;;;;21.63;40.53;95931.88;10292938;28;97085;-66
2022/07/26 21:24:24;;;;;;;2.85;1.00;;;;;;;21.56;40.44;95942.56;10289453;28;99169;-68
2022/07/26 21:29:29;;;;;;;5.85;1.85;;;;;;;21.50;40.69;95927.50;10292539;28;96800;-66
2022/07/26 21:34:32;;;;;;;;;;;;;;;21.55;40.00;95945.44;10294701;28;97814;-65
2022/07/26 21:39:36;;;;;;;4.63;2.13;;;;;;;21.46;40.40;95929.81;10285075;28;97992;-66
2022/07/26 21:44:40;;;;;;;1.65;1.00;;;;;;;21.38;40.73;95927.47;10276155;28;97312;-66
2022/07/26 21:49:43;;;;;;;4.03;1.23;;;;;;;21.31;41.10;95934.69;10285037;28;98082;-67
2022/07/26 21:54:46;;;;;;;3.35;1.98;;;;;;;21.23;41.06;95937.66;10288063;28;97644;-66
2022/07/26 21:59:50;;;;;;;2.45;1.23;;;;;;;21.19;41.24;95931.16;10288292;28;98488;-66
2022/07/26 22:04:53;;;;;;;2.03;1.08;;;;;;;21.11;41.44;95930.41;10291616;28;97116;-66
2022/07/26 22:09:56;;;;;;;4.43;1.10;;;;;;;21.03;41.63;95933.41;10295727;28;98052;-66
2022/07/26 22:15:00;;;;;;;2.08;1.00;;;;;;;20.92;41.25;95932.25;10294023;28;97159;-66
2022/07/26 22:20:04;;;;;;;;;;;;;;;20.84;40.57;95945.00;10306764;28;98119;-66
2022/07/26 22:25:07;;;;;;;2.65;1.13;;;;;;;20.69;40.38;95940.03;10310483;28;97575;-66
2022/07/26 22:30:12;;;;;;;3.50;1.58;;;;;;;20.48;42.27;95941.25;10297276;28;97585;-67
2022/07/26 22:35:15;;;;;;;3.70;1.30;;;;;;;20.44;43.04;95934.72;10294540;28;98624;-67
2022/07/26 22:40:18;;;;;;;3.55;1.77;;;;;;;20.32;43.16;95948.72;10292732;28;97256;-66
2022/07/26 22:45:23;;;;;;;3.63;1.48;;;;;;;20.24;43.88;95945.53;10293502;28;98285;-66
2022/07/26 22:50:26;;;;;;;;;;;;;;;20.18;43.31;95942.69;10290102;28;99129;-66
2022/07/26 22:55:29;;;;;;;2.28;1.10;;;;;;;20.12;44.41;95948.06;10283955;28;98521;-66
2022/07/26 23:00:34;;;;;;;2.97;1.58;;;;;;;20.07;44.27;95945.22;10293674;28;96771;-66
2022/07/26 23:05:37;;;;;;;3.30;1.38;;;;;;;20.00;44.65;95945.28;10288845;28;97206;-66
2022/07/26 23:10:49;;;;;;;2.80;0.90;;;;;;;19.58;45.65;95950.16;10288473;28;97207;-66
2022/07/26 23:15:54;;;;;;;2.22;1.25;;;;;;;19.29;46.90;95948.88;10287316;28;96936;-66
2022/07/26 23:21:03;;;;;;;1.58;1.20;;;;;;;19.21;46.21;95953.38;10286290;28;98747;-66
2022/07/26 23:26:06;;;;;;;1.60;0.90;;;;;;;19.15;46.07;95953.41;10287529;28;98262;-65
2022/07/26 23:31:11;;;;;;;3.33;1.10;;;;;;;19.09;47.27;95957.69;10286096;28;98496;-66
2022/07/26 23:36:14;;;;;;;1.23;0.98;;;;;;;19.01;47.00;95949.97;10277770;28;99154;-67
2022/07/26 23:41:17;;;;;;;3.28;1.13;;;;;;;19.00;46.62;95953.63;10283842;28;97629;-66
2022/07/26 23:46:22;;;;;;;2.55;1.00;;;;;;;18.92;47.72;95953.88;10281728;28;98325;-66